createdAt,value
2023-04-11T00:01:53.740Z,100123.00
2023-04-11T00:11:53.600Z,100115.00
2023-04-11T00:21:55.452Z,100119.00
2023-04-11T00:31:56.263Z,100113.00
2023-04-11T00:41:56.866Z,100111.00
2023-04-11T00:51:56.620Z,100107.00
2023-04-11T01:01:56.871Z,100107.00
2023-04-11T01:11:57.778Z,100093.00
2023-04-11T01:21:57.880Z,100089.00
2023-04-11T01:31:57.923Z,100087.00
2023-04-11T01:41:58.539Z,100082.00
2023-04-11T01:51:59.848Z,100082.00
2023-04-11T02:02:00.121Z,100089.00
2023-04-11T02:12:00.941Z,100095.00
2023-04-11T02:22:00.784Z,100101.00
2023-04-11T02:32:00.890Z,100111.00
2023-04-11T02:42:00.973Z,100117.00
2023-04-11T02:52:01.879Z,100129.00
2023-04-11T03:02:03.114Z,100137.00
2023-04-11T03:12:04.240Z,100142.00
2023-04-11T03:22:04.973Z,100146.00
2023-04-11T03:32:06.980Z,100150.00
2023-04-11T03:42:07.252Z,100150.00
2023-04-11T03:52:10.118Z,100158.00
2023-04-11T04:02:12.155Z,100168.00
2023-04-11T04:12:14.867Z,100176.00
2023-04-11T04:22:18.210Z,100172.00
2023-04-11T04:32:21.306Z,100180.00
2023-04-11T04:42:22.844Z,100185.00
2023-04-11T04:52:23.036Z,100197.00
2023-04-11T05:02:25.853Z,100209.00
2023-04-11T05:12:28.622Z,100223.00
2023-04-11T05:22:29.473Z,100232.00
2023-04-11T05:32:30.539Z,100242.00
2023-04-11T05:42:32.895Z,100254.00
2023-04-11T05:52:32.999Z,100264.00
2023-04-11T06:02:33.753Z,100276.00
2023-04-11T06:12:34.010Z,100298.00
2023-04-11T06:22:34.043Z,100313.00
2023-04-11T06:32:34.079Z,100331.00
2023-04-11T06:42:34.117Z,100345.00
2023-04-11T06:52:34.034Z,100355.00
2023-04-11T07:02:35.689Z,100364.00
2023-04-11T07:12:36.084Z,100372.00
2023-04-11T07:22:36.581Z,100406.00
2023-04-11T07:32:37.138Z,100406.00
2023-04-11T07:42:37.231Z,100402.00
2023-04-11T07:52:37.134Z,100406.00
2023-04-11T08:02:37.679Z,100406.00
2023-04-11T08:12:38.359Z,100406.00
2023-04-11T08:22:38.861Z,100415.00
2023-04-11T08:32:40.537Z,100421.00
2023-04-11T08:42:40.318Z,100427.00
2023-04-11T08:52:40.575Z,100429.00
2023-04-11T09:02:40.567Z,100439.00
2023-04-11T09:12:40.311Z,100441.00
2023-04-11T09:22:42.624Z,100439.00
2023-04-11T09:32:42.269Z,100427.00
2023-04-11T09:43:01.990Z,100437.00
2023-04-11T09:53:02.349Z,100431.00
2023-04-11T10:03:02.609Z,100431.00
2023-04-11T10:13:03.461Z,100429.00
2023-04-11T10:23:06.095Z,100421.00
2023-04-11T10:33:08.564Z,100429.00
2023-04-11T10:43:11.459Z,100441.00
2023-04-11T10:53:13.528Z,100441.00
2023-04-11T11:03:13.547Z,100437.00
2023-04-11T11:13:14.555Z,100435.00
2023-04-11T11:23:14.458Z,100435.00
2023-04-11T11:33:15.299Z,100439.00
2023-04-11T11:43:16.119Z,100439.00
2023-04-11T11:53:16.846Z,100431.00
2023-04-11T12:03:17.860Z,100431.00
2023-04-11T12:13:20.889Z,100429.00
2023-04-11T12:23:20.521Z,100431.00
2023-04-11T12:33:20.593Z,100435.00
2023-04-11T12:43:20.885Z,100431.00
2023-04-11T12:53:20.654Z,100433.00
2023-04-11T13:03:23.767Z,100435.00
2023-04-11T13:13:23.658Z,100443.00
2023-04-11T13:23:23.599Z,100441.00
2023-04-11T13:33:23.707Z,100435.00
2023-04-11T13:43:23.661Z,100429.00
2023-04-11T13:53:23.961Z,100431.00
2023-04-11T14:03:26.959Z,100423.00
2023-04-11T14:13:27.702Z,100421.00
2023-04-11T14:23:28.144Z,100417.00
2023-04-11T14:33:28.841Z,100415.00
2023-04-11T14:43:28.847Z,100415.00
2023-04-11T14:53:28.815Z,100411.00
2023-04-11T15:03:29.008Z,100411.00
2023-04-11T15:13:40.302Z,100417.00
2023-04-11T15:23:40.816Z,100413.00
2023-04-11T15:33:40.851Z,100411.00
2023-04-11T15:43:42.568Z,100402.00
2023-04-11T15:53:43.052Z,100396.00
2023-04-11T16:03:43.968Z,100392.00
2023-04-11T16:13:46.870Z,100386.00
2023-04-11T16:23:46.985Z,100382.00
2023-04-11T16:33:46.852Z,100372.00
2023-04-11T16:43:46.850Z,100370.00
2023-04-11T16:53:47.080Z,100364.00
2023-04-11T17:03:46.979Z,100364.00
2023-04-11T17:13:48.909Z,100364.00
2023-04-11T17:23:50.251Z,100361.00
2023-04-11T17:33:49.933Z,100357.00
2023-04-11T17:43:50.368Z,100351.00
2023-04-11T17:53:51.815Z,100341.00
2023-04-11T18:03:52.173Z,100329.00
2023-04-11T18:13:52.009Z,100327.00
2023-04-11T18:23:52.149Z,100323.00
2023-04-11T18:33:52.227Z,100315.00
2023-04-11T18:43:55.202Z,100306.00
2023-04-11T18:53:55.621Z,100302.00
2023-04-11T19:03:57.189Z,100298.00
2023-04-11T19:13:59.597Z,100290.00
2023-04-11T19:24:00.201Z,100286.00
2023-04-11T19:34:00.219Z,100274.00
2023-04-11T19:44:00.106Z,100268.00
2023-04-11T19:54:00.322Z,100262.00
2023-04-11T20:04:01.902Z,100252.00
2023-04-11T20:14:02.186Z,100232.00
2023-04-11T20:24:03.209Z,100221.00
2023-04-11T20:34:03.168Z,100199.00
2023-04-11T20:44:04.065Z,100185.00
2023-04-11T20:54:04.313Z,100172.00
2023-04-11T21:04:04.408Z,100156.00
2023-04-11T21:14:04.274Z,100142.00
2023-04-11T21:24:06.167Z,100129.00
2023-04-11T21:34:06.398Z,100121.00
2023-04-11T21:44:06.331Z,100109.00
2023-04-11T21:54:06.370Z,100101.00
2023-04-11T22:04:08.517Z,100084.00
2023-04-11T22:14:11.244Z,100066.00
2023-04-11T22:24:11.366Z,100046.00
2023-04-11T22:34:11.804Z,100038.00
2023-04-11T22:44:12.383Z,100014.00
2023-04-11T22:54:13.003Z,100001.00
2023-04-11T23:04:13.372Z,99983.00
2023-04-11T23:14:14.819Z,99963.00
2023-04-11T23:24:15.480Z,99952.00
2023-04-11T23:34:15.674Z,99938.00
2023-04-11T23:44:15.512Z,99932.00
2023-04-11T23:54:15.537Z,99920.00
